Time;durP1;ratioP1;P1;durP2;ratioP2;P2;SDS_P1;SDS_P2;PMS_P1;PMS_P2;Temp;Humidity;BMP_temperature;BMP_pressure;BME280_temperature;BME280_humidity;BME280_pressure;Samples;Min_cycle;Max_cycle;Signal;HPM_P1;HPM_P2
2023/12/24 00:22:48;;;;;;;;;;;;;;;;;;;;;
2023/12/24 00:36:35;;;;;;;13.00;3.70;;;8.70;99.90;;;;;;4928312;23;20048;-94
2023/12/24 00:40:22;;;;;;;11.43;3.83;;;8.50;99.90;;;;;;4920731;29;20077;-95
2023/12/24 00:43:01;;;;;;;12.35;3.95;;;9.00;99.90;;;;;;4849592;29;20057;-96
2023/12/24 00:58:51;;;;;;;;;;;;;;;;;;;;;
2023/12/24 01:09:58;;;;;;;14.00;3.97;;;9.20;99.90;;;;;;4887278;29;20056;-95
2023/12/24 01:12:37;;;;;;;12.40;3.45;;;8.60;99.90;;;;;;4840286;29;20061;-96
2023/12/24 01:25:04;;;;;;;;;;;;;;;;;;;;;
2023/12/24 01:30:35;;;;;;;14.20;3.73;;;8.70;99.90;;;;;;5114931;23;20052;-96
2023/12/24 01:51:48;;;;;;;16.17;3.70;;;8.60;99.90;;;;;;4847229;29;20045;-94
2023/12/24 01:55:07;;;;;;;12.27;4.00;;;8.20;99.90;;;;;;4849698;29;20101;-94
2023/12/24 01:58:08;;;;;;;15.10;4.13;;;8.60;99.90;;;;;;5410702;23;20084;-96
2023/12/24 02:01:21;;;;;;;12.17;3.63;;;8.90;99.90;;;;;;4938379;23;20080;-96
2023/12/24 02:04:16;;;;;;;16.25;4.30;;;8.70;99.90;;;;;;4925318;29;20048;-96
2023/12/24 02:11:11;;;;;;;14.68;3.72;;;8.50;99.90;;;;;;4924364;29;20047;-94
2023/12/24 02:13:59;;;;;;;13.27;3.70;;;8.20;99.90;;;;;;4906055;29;20052;-93
2023/12/24 02:25:49;;;;;;;13.43;3.40;;;8.80;99.90;;;;;;1732243;23;20314;31
2023/12/24 02:28:26;;;;;;;14.13;3.50;;;8.70;99.90;;;;;;4878702;29;20057;-93
2023/12/24 02:31:10;;;;;;;11.85;3.58;;;9.70;99.90;;;;;;4880480;29;20053;-95
2023/12/24 02:34:02;;;;;;;10.70;3.72;;;10.10;99.90;;;;;;4864970;29;20053;-96
2023/12/24 02:53:12;;;;;;;13.83;4.30;;;8.50;99.90;;;;;;4921890;29;20399;-94
2023/12/24 02:55:44;;;;;;;12.20;3.65;;;8.70;99.90;;;;;;4906643;29;20059;-94
2023/12/24 03:05:03;;;;;;;11.47;4.37;;;8.60;99.90;;;;;;4889666;29;20060;-95
2023/12/24 03:07:52;;;;;;;11.40;4.13;;;8.70;99.90;;;;;;4884591;29;20116;-94
2023/12/24 03:16:45;;;;;;;14.38;4.32;;;8.60;99.90;;;;;;5302483;23;20080;-95
2023/12/24 03:19:46;;;;;;;11.55;4.60;;;9.30;99.90;;;;;;4904054;29;20083;-94
2023/12/24 03:30:28;;;;;;;11.87;4.30;;;8.90;99.90;;;;;;4917435;29;20048;-94
2023/12/24 03:33:11;;;;;;;9.83;4.20;;;8.80;99.90;;;;;;4906896;23;20076;-95
2023/12/24 03:35:58;;;;;;;12.55;4.75;;;8.80;99.90;;;;;;4883305;29;20057;-94
2023/12/24 03:38:32;;;;;;;12.98;4.45;;;8.60;99.90;;;;;;4950866;23;20044;-95
2023/12/24 03:41:49;;;;;;;11.18;3.50;;;9.90;99.90;;;;;;4923271;29;20084;-96
2023/12/24 03:45:21;;;;;;;11.48;4.20;;;8.30;99.90;;;;;;4936776;29;20477;-95
2023/12/24 03:48:37;;;;;;;12.43;4.43;;;9.40;99.90;;;;;;4924632;29;20063;-96
2023/12/24 03:51:20;;;;;;;;;;;;;;;;;;;;;
2023/12/24 03:54:29;;;;;;;10.52;4.40;;;8.70;99.90;;;;;;4893729;29;20121;-96
2023/12/24 03:59:33;;;;;;;10.30;4.03;;;8.90;99.90;;;;;;4925631;23;20075;-95
2023/12/24 04:12:44;;;;;;;11.25;3.85;;;8.80;99.90;;;;;;5142055;23;20055;-95
2023/12/24 04:15:31;;;;;;;13.25;4.20;;;10.70;99.90;;;;;;4916006;29;20044;-94
2023/12/24 04:20:28;;;;;;;10.77;3.72;;;9.00;99.90;;;;;;4971411;23;20056;-94
2023/12/24 04:23:06;;;;;;;12.07;4.20;;;9.90;99.90;;;;;;4905673;29;20099;-96
2023/12/24 04:25:44;;;;;;;9.15;3.78;;;10.50;99.90;;;;;;4904848;29;20044;-96
2023/12/24 04:28:34;;;;;;;9.77;3.43;;;9.00;99.90;;;;;;5184801;23;20061;-94
2023/12/24 04:34:26;;;;;;;9.25;3.38;;;8.90;99.90;;;;;;4946890;23;20057;-93
2023/12/24 04:40:38;;;;;;;10.60;3.67;;;8.70;99.90;;;;;;5149414;23;20064;-95
2023/12/24 04:49:34;;;;;;;8.35;3.10;;;9.00;99.90;;;;;;5164034;23;20064;-94
2023/12/24 04:52:04;;;;;;;10.82;3.08;;;8.20;99.90;;;;;;4903310;29;20055;-94
2023/12/24 04:54:39;;;;;;;11.33;3.33;;;9.10;99.90;;;;;;4904185;29;20059;-94
2023/12/24 04:57:21;;;;;;;11.13;3.35;;;10.10;99.90;;;;;;4908872;29;20103;-94
2023/12/24 05:14:16;;;;;;;8.20;2.58;;;9.20;99.90;;;;;;4922296;29;20139;-94
2023/12/24 05:20:22;;;;;;;8.70;2.78;;;9.20;99.90;;;;;;4924889;23;20052;-96
2023/12/24 05:22:53;;;;;;;7.40;2.40;;;9.20;99.90;;;;;;4904315;23;20063;-95
2023/12/24 05:28:52;;;;;;;6.70;2.15;;;9.20;99.90;;;;;;5060126;23;20107;-96
2023/12/24 05:38:32;;;;;;;6.70;1.90;;;8.50;99.90;;;;;;4915933;29;20059;-95
2023/12/24 05:44:19;;;;;;;7.63;2.00;;;9.30;99.90;;;;;;4893969;29;20143;-96
2023/12/24 05:47:03;;;;;;;6.97;2.30;;;10.80;99.90;;;;;;4906610;29;20051;-95
2023/12/24 05:49:33;;;;;;;6.78;2.10;;;9.40;99.90;;;;;;4904099;29;20052;-95
2023/12/24 05:52:17;;;;;;;7.40;2.28;;;9.40;99.90;;;;;;4905819;29;20056;-95
2023/12/24 05:57:19;;;;;;;6.85;2.00;;;9.30;99.90;;;;;;5058732;23;20060;-94
2023/12/24 05:59:50;;;;;;;6.13;2.00;;;9.50;99.90;;;;;;4909405;29;20044;-95
2023/12/24 06:02:32;;;;;;;8.57;2.00;;;10.60;99.90;;;;;;4907756;29;20043;-96
2023/12/24 06:05:33;;;;;;;6.95;1.90;;;10.60;99.90;;;;;;4906158;29;20476;-95
2023/12/24 06:18:22;;;;;;;7.03;1.80;;;9.80;99.90;;;;;;2551408;23;20403;-96
2023/12/24 06:25:34;;;;;;;7.30;2.03;;;9.20;99.90;;;;;;4903235;29;20773;-94
2023/12/24 06:28:53;;;;;;;6.13;2.13;;;8.80;99.90;;;;;;4903357;29;20052;-96
2023/12/24 06:35:22;;;;;;;8.10;2.28;;;8.70;99.90;;;;;;4905254;29;20059;-95
2023/12/24 06:37:48;;;;;;;7.20;2.00;;;10.60;99.90;;;;;;4905447;29;20386;-96
2023/12/24 06:40:57;;;;;;;7.63;2.50;;;11.20;99.90;;;;;;4903550;29;20139;-96
2023/12/24 06:43:45;;;;;;;7.70;2.28;;;10.20;99.90;;;;;;4903797;29;20052;-94
2023/12/24 06:46:25;;;;;;;9.50;2.50;;;10.00;99.90;;;;;;4907329;23;20057;-96
2023/12/24 06:49:00;;;;;;;8.63;2.60;;;10.80;99.90;;;;;;4886294;29;20051;-96
2023/12/24 06:51:28;;;;;;;9.23;2.70;;;9.90;99.90;;;;;;4885631;29;20147;-95
2023/12/24 07:01:23;;;;;;;10.75;3.45;;;9.20;99.90;;;;;;4865808;29;20052;-94
2023/12/24 07:04:01;;;;;;;10.07;3.50;;;10.00;99.90;;;;;;4849434;29;20153;-96
2023/12/24 07:06:37;;;;;;;11.30;4.03;;;11.00;99.90;;;;;;4864492;29;20105;-96
2023/12/24 07:12:46;;;;;;;11.30;4.38;;;9.70;99.90;;;;;;4868396;29;20117;-96
2023/12/24 07:15:34;;;;;;;17.40;4.82;;;11.50;99.90;;;;;;4893805;23;20050;-96
2023/12/24 07:22:04;;;;;;;16.97;5.27;;;9.60;99.90;;;;;;4921804;29;20145;-95
2023/12/24 07:24:48;;;;;;;11.97;4.77;;;9.90;99.90;;;;;;4908848;29;20056;-96
2023/12/24 07:34:32;;;;;;;18.77;5.57;;;10.20;99.90;;;;;;4913684;29;20055;-96
2023/12/24 07:37:42;;;;;;;15.38;5.00;;;11.60;99.90;;;;;;4974677;23;20078;-96
2023/12/24 07:44:53;;;;;;;24.92;11.45;;;9.50;99.90;;;;;;5475075;23;20048;-95
2023/12/24 07:47:21;;;;;;;22.30;13.38;;;11.10;99.90;;;;;;4900397;29;20067;-87
2023/12/24 07:49:59;;;;;;;19.15;7.63;;;11.70;99.90;;;;;;4898792;29;20131;-89
2023/12/24 07:53:06;;;;;;;16.55;5.40;;;9.10;99.90;;;;;;4898943;29;20044;-88
2023/12/24 07:55:34;;;;;;;15.05;6.13;;;10.30;99.90;;;;;;4801458;29;20050;-87
2023/12/24 07:58:17;;;;;;;15.30;6.05;;;11.90;99.90;;;;;;4806057;29;20066;-87
2023/12/24 08:01:17;;;;;;;17.75;7.13;;;10.30;99.90;;;;;;4806921;29;20047;-88
2023/12/24 08:03:51;;;;;;;17.13;4.63;;;10.70;99.90;;;;;;4805758;29;20522;-86
2023/12/24 08:06:38;;;;;;;17.30;3.80;;;12.00;99.90;;;;;;4917131;29;20051;-88
2023/12/24 08:09:04;;;;;;;12.48;4.07;;;10.10;99.90;;;;;;4911287;29;20048;-91
2023/12/24 08:11:42;;;;;;;10.73;3.78;;;11.60;99.90;;;;;;4920339;23;20072;-89
2023/12/24 08:14:13;;;;;;;14.48;3.47;;;10.50;99.90;;;;;;4899136;29;20126;-87
2023/12/24 08:16:55;;;;;;;16.92;4.00;;;10.60;99.90;;;;;;4893866;29;20048;-89
2023/12/24 08:19:20;;;;;;;12.35;3.55;;;10.40;99.90;;;;;;4893980;29;20504;-88
2023/12/24 08:21:46;;;;;;;18.60;4.22;;;10.50;99.90;;;;;;4900539;29;20052;-87
2023/12/24 08:24:12;;;;;;;12.35;3.92;;;11.10;99.90;;;;;;5024633;23;20379;-89
2023/12/24 08:26:37;;;;;;;16.35;4.68;;;10.40;99.90;;;;;;4862929;29;20053;-88
2023/12/24 08:29:03;;;;;;;15.70;5.03;;;11.60;99.90;;;;;;4862300;29;20087;-88
2023/12/24 08:32:31;;;;;;;16.70;4.43;;;11.20;99.90;;;;;;4882989;23;20497;-88
2023/12/24 08:35:17;;;;;;;13.65;4.15;;;10.40;99.90;;;;;;4898338;29;20544;-90
2023/12/24 08:38:33;;;;;;;14.77;3.75;;;10.50;99.90;;;;;;4856843;29;20085;-89
2023/12/24 08:41:50;;;;;;;16.88;4.55;;;9.30;99.90;;;;;;4858138;29;20090;-89
2023/12/24 08:44:16;;;;;;;11.88;4.00;;;10.30;99.90;;;;;;4842469;29;20510;-88
2023/12/24 08:47:10;;;;;;;15.02;4.25;;;11.40;99.90;;;;;;4842493;29;20092;-89
2023/12/24 08:49:36;;;;;;;14.82;3.75;;;10.40;99.90;;;;;;4843994;29;20049;-90
2023/12/24 08:52:33;;;;;;;;;;;;;;;;;;;;;
2023/12/24 08:55:18;;;;;;;15.30;4.75;;;12.10;99.90;;;;;;4805444;29;20060;-87
2023/12/24 08:57:59;;;;;;;14.82;5.03;;;11.90;99.90;;;;;;4843432;29;20056;-89
2023/12/24 09:00:43;;;;;;;16.08;5.07;;;11.50;99.90;;;;;;4838508;29;20053;-88
2023/12/24 09:03:21;;;;;;;14.63;6.82;;;11.50;99.90;;;;;;4833893;29;20041;-89
2023/12/24 09:05:56;;;;;;;16.90;6.43;;;10.80;99.90;;;;;;4844508;29;20062;-88
2023/12/24 09:08:43;;;;;;;13.65;3.78;;;11.10;99.90;;;;;;4828631;29;20050;-89
2023/12/24 09:14:26;;;;;;;16.30;4.60;;;10.60;99.90;;;;;;5122537;23;20703;-89
2023/12/24 09:16:52;;;;;;;14.45;3.63;;;10.50;99.90;;;;;;4884015;29;20140;-89
2023/12/24 09:19:18;;;;;;;13.40;4.10;;;11.70;99.90;;;;;;4899582;23;20139;-89
2023/12/24 09:25:49;;;;;;;9.30;3.15;;;11.00;99.90;;;;;;5343344;23;20052;-88
2023/12/24 09:31:40;;;;;;;9.55;2.92;;;11.10;99.90;;;;;;4906806;29;20048;-90
2023/12/24 09:37:54;;;;;;;11.68;3.60;;;10.60;99.90;;;;;;4933042;23;20091;-89
2023/12/24 09:40:20;;;;;;;16.85;6.50;;;11.10;99.90;;;;;;4826004;29;20049;-88
2023/12/24 09:42:49;;;;;;;10.68;4.43;;;12.50;99.90;;;;;;4825773;29;20070;-89
2023/12/24 09:45:17;;;;;;;17.05;6.95;;;10.80;99.90;;;;;;4827073;29;20061;-90
2023/12/24 09:47:43;;;;;;;17.58;9.43;;;12.00;99.90;;;;;;4843227;29;20151;-90
2023/12/24 09:50:17;;;;;;;14.60;7.30;;;12.20;99.90;;;;;;4901349;29;20127;-89
2023/12/24 09:52:55;;;;;;;11.50;3.97;;;12.20;99.90;;;;;;4901640;29;20094;-87
2023/12/24 09:55:21;;;;;;;16.42;8.32;;;11.40;99.90;;;;;;4903476;29;20664;-90
2023/12/24 09:58:01;;;;;;;13.93;4.78;;;12.20;99.90;;;;;;4903524;29;20067;-88
2023/12/24 10:00:27;;;;;;;12.95;6.15;;;10.80;99.90;;;;;;4903914;29;20512;-89
2023/12/24 10:03:07;;;;;;;14.73;6.40;;;12.60;99.90;;;;;;4901851;29;20041;-89
2023/12/24 10:06:17;;;;;;;14.27;3.80;;;12.30;99.90;;;;;;4902744;29;20055;-89
2023/12/24 10:08:54;;;;;;;17.02;7.18;;;11.30;99.90;;;;;;4903222;29;20052;-89
2023/12/24 10:11:23;;;;;;;13.07;4.30;;;12.10;99.90;;;;;;4901293;29;20127;-88
2023/12/24 10:14:07;;;;;;;17.42;5.47;;;11.50;99.90;;;;;;4903207;29;20047;-89
2023/12/24 10:19:51;;;;;;;16.27;3.80;;;11.00;99.90;;;;;;4899971;29;19930;-91
2023/12/24 10:22:35;;;;;;;;;;;12.50;99.90;;;;;;4884538;29;20515;-90
2023/12/24 10:25:07;;;;;;;13.20;4.10;;;10.90;99.90;;;;;;4882446;29;19924;-90
2023/12/24 10:28:03;;;;;;;12.32;3.45;;;11.00;99.90;;;;;;4881552;29;20390;-90
2023/12/24 10:31:18;;;;;;;14.35;3.70;;;10.20;99.90;;;;;;4884429;29;20057;-92
2023/12/24 10:33:44;;;;;;;13.25;3.80;;;12.10;99.90;;;;;;4884018;29;20383;-89
2023/12/24 10:36:22;;;;;;;15.90;4.28;;;12.40;99.90;;;;;;4883183;29;20112;-90
2023/12/24 10:38:55;;;;;;;15.70;3.50;;;11.00;99.90;;;;;;4883236;29;20056;-89
2023/12/24 10:41:30;;;;;;;12.38;3.85;;;12.00;99.90;;;;;;4884931;29;20048;-91
2023/12/24 10:44:11;;;;;;;15.43;3.40;;;12.50;99.90;;;;;;4884414;29;20052;-92
2023/12/24 10:47:09;;;;;;;11.95;3.80;;;12.40;99.90;;;;;;4887803;29;20160;-92
2023/12/24 10:50:22;;;;;;;12.27;3.45;;;11.10;99.90;;;;;;4818685;29;20234;-90
2023/12/24 10:52:54;;;;;;;10.30;3.50;;;11.20;99.90;;;;;;4805023;29;20467;-90
2023/12/24 10:55:30;;;;;;;10.60;3.08;;;12.30;99.90;;;;;;4825128;29;20449;-89
2023/12/24 10:58:33;;;;;;;11.13;3.45;;;12.40;99.90;;;;;;4825109;29;20088;-89
2023/12/24 11:01:14;;;;;;;14.07;3.38;;;12.70;99.90;;;;;;4826514;29;20042;-88
2023/12/24 11:03:47;;;;;;;11.13;3.25;;;12.10;99.90;;;;;;4854119;29;20108;-90
2023/12/24 11:06:42;;;;;;;17.67;3.30;;;11.40;99.90;;;;;;4905565;29;20037;-89
2023/12/24 11:09:32;;;;;;;12.50;3.30;;;11.20;99.90;;;;;;4886560;29;20348;-87
2023/12/24 11:11:58;;;;;;;12.13;3.08;;;12.60;99.90;;;;;;4884211;29;20076;-88
2023/12/24 11:14:45;;;;;;;11.30;3.45;;;11.30;99.90;;;;;;4881916;29;20052;-90
2023/12/24 11:17:49;;;;;;;17.30;3.50;;;11.30;99.90;;;;;;4882231;29;20044;-88
2023/12/24 11:20:20;;;;;;;10.93;3.47;;;11.40;99.90;;;;;;4868158;29;20524;-87
2023/12/24 11:23:04;;;;;;;11.20;3.30;;;12.70;99.90;;;;;;4881386;29;20109;-88
2023/12/24 11:25:36;;;;;;;;;;;12.40;99.90;;;;;;4867806;29;20132;-87
2023/12/24 11:28:09;;;;;;;13.57;3.10;;;11.40;99.90;;;;;;4861946;29;19923;-87
2023/12/24 11:31:03;;;;;;;14.95;3.53;;;12.20;99.90;;;;;;4875533;29;20548;-88
2023/12/24 11:33:31;;;;;;;16.30;3.30;;;11.40;99.90;;;;;;4881118;29;20044;-90
2023/12/24 11:36:10;;;;;;;17.23;3.53;;;12.30;99.90;;;;;;4881638;29;20048;-91
2023/12/24 11:38:42;;;;;;;15.60;3.95;;;11.90;99.90;;;;;;4881876;29;20040;-91
2023/12/24 11:41:16;;;;;;;40.25;18.05;;;12.30;99.90;;;;;;4881211;29;20565;-90
2023/12/24 11:44:06;;;;;;;23.25;7.63;;;12.10;99.90;;;;;;4880273;29;20040;-89
2023/12/24 11:46:35;;;;;;;18.30;5.75;;;13.10;99.90;;;;;;4881430;29;20144;-90
2023/12/24 11:49:03;;;;;;;14.45;4.47;;;13.00;99.90;;;;;;4880664;29;20060;-89
2023/12/24 11:51:31;;;;;;;16.90;5.80;;;11.60;99.90;;;;;;4881372;29;20107;-89
2023/12/24 11:54:04;;;;;;;14.70;6.65;;;11.50;99.90;;;;;;4881116;29;20055;-89
2023/12/24 11:56:30;;;;;;;;;;;12.30;99.90;;;;;;4880880;29;20045;-91
2023/12/24 11:59:08;;;;;;;18.48;7.63;;;11.90;99.90;;;;;;4881293;29;19979;-91
2023/12/24 12:01:44;;;;;;;17.38;4.20;;;12.40;99.90;;;;;;4881943;29;20056;-92
2023/12/24 12:04:24;;;;;;;15.75;5.18;;;13.00;99.90;;;;;;4880867;29;20052;-91
2023/12/24 12:06:58;;;;;;;16.40;4.05;;;12.70;99.90;;;;;;4882872;29;20050;-93
2023/12/24 12:09:36;;;;;;;12.82;3.92;;;12.80;99.90;;;;;;4898373;29;20108;-91
2023/12/24 12:14:39;;;;;;;11.85;3.63;;;11.50;99.90;;;;;;4860221;29;20559;-89
2023/12/24 12:17:11;;;;;;;14.38;3.60;;;12.30;99.90;;;;;;4856858;29;20049;-89
2023/12/24 12:19:38;;;;;;;11.50;3.72;;;12.50;99.90;;;;;;4869377;29;20057;-90
2023/12/24 12:22:10;;;;;;;12.25;4.10;;;11.60;99.90;;;;;;4860831;29;20106;-89
2023/12/24 12:24:44;;;;;;;15.02;5.43;;;11.30;99.90;;;;;;4862874;29;20067;-89
2023/12/24 12:27:13;;;;;;;20.35;5.82;;;13.10;99.90;;;;;;4857592;29;20098;-90
2023/12/24 12:29:57;;;;;;;15.60;4.28;;;11.50;99.90;;;;;;4862005;29;20055;-90
2023/12/24 12:32:40;;;;;;;10.73;3.90;;;13.10;99.90;;;;;;4860773;29;20110;-90
2023/12/24 12:35:24;;;;;;;14.73;3.95;;;11.10;99.90;;;;;;4875066;29;20049;-90
2023/12/24 12:38:05;;;;;;;12.40;3.90;;;11.60;99.90;;;;;;4860653;29;20075;-87
2023/12/24 12:41:14;;;;;;;12.27;3.92;;;11.60;99.90;;;;;;4883380;29;20044;-90
2023/12/24 12:43:40;;;;;;;13.70;4.45;;;11.80;99.90;;;;;;4863890;29;20090;-90
2023/12/24 12:46:10;;;;;;;10.80;4.07;;;12.90;99.90;;;;;;4864449;29;20132;-90
2023/12/24 12:48:50;;;;;;;12.07;3.47;;;13.10;99.90;;;;;;4865527;29;20086;-90
2023/12/24 12:51:31;;;;;;;12.27;3.40;;;11.70;99.90;;;;;;4863167;29;20045;-90
2023/12/24 12:54:14;;;;;;;13.38;2.90;;;13.10;99.90;;;;;;4863630;29;20045;-87
2023/12/24 12:56:44;;;;;;;10.70;2.92;;;13.10;99.90;;;;;;4863251;29;20136;-90
2023/12/24 12:59:25;;;;;;;9.05;2.53;;;13.10;99.90;;;;;;4861991;29;20112;-90
2023/12/24 13:01:52;;;;;;;9.65;2.33;;;11.70;99.90;;;;;;4865657;29;20117;-90
2023/12/24 13:04:26;;;;;;;8.40;2.40;;;13.10;99.90;;;;;;4865477;29;20074;-90
2023/12/24 13:07:11;;;;;;;;;;;11.80;99.90;;;;;;4864902;29;20049;-90
2023/12/24 13:09:46;;;;;;;;;;;12.70;99.90;;;;;;4866406;29;20026;-90
2023/12/24 13:12:12;;;;;;;25.88;12.55;;;11.60;99.90;;;;;;4864248;29;19927;-90
2023/12/24 13:14:57;;;;;;;14.25;5.63;;;11.50;99.90;;;;;;4847236;29;20403;-88
2023/12/24 13:17:22;;;;;;;15.73;5.32;;;12.80;99.90;;;;;;4846847;29;20057;-88
2023/12/24 13:19:49;;;;;;;9.27;2.92;;;12.90;99.90;;;;;;4846557;29;20055;-88
2023/12/24 13:22:15;;;;;;;12.65;3.30;;;13.30;99.90;;;;;;4846629;29;20140;-88
2023/12/24 13:24:43;;;;;;;8.48;2.97;;;12.50;99.90;;;;;;4860697;23;21427;-89
2023/12/24 13:27:09;;;;;;;10.77;3.05;;;11.80;99.90;;;;;;4901775;29;20074;-89
2023/12/24 13:29:37;;;;;;;11.30;3.90;;;11.50;99.90;;;;;;4902504;29;20559;-88
2023/12/24 13:32:03;;;;;;;10.50;3.95;;;12.60;99.90;;;;;;4901924;29;20044;-89
2023/12/24 13:37:19;;;;;;;12.23;3.95;;;13.20;99.90;;;;;;4901898;29;20155;-91
2023/12/24 13:39:45;;;;;;;16.40;4.93;;;11.70;99.90;;;;;;4902329;29;20051;-87
2023/12/24 13:42:26;;;;;;;15.50;6.25;;;11.70;99.90;;;;;;4901046;29;20091;-87
2023/12/24 13:45:02;;;;;;;15.63;4.75;;;13.30;99.90;;;;;;4901618;29;20051;-86
2023/12/24 13:47:33;;;;;;;13.90;5.93;;;13.00;99.90;;;;;;4901469;29;20101;-90
2023/12/24 13:50:43;;;;;;;11.48;4.13;;;11.30;99.90;;;;;;4902094;29;20048;-88
2023/12/24 13:53:08;;;;;;;11.18;4.80;;;11.50;99.90;;;;;;4902447;29;20054;-89
2023/12/24 13:56:02;;;;;;;15.27;5.20;;;11.60;99.90;;;;;;4901631;29;20044;-89
2023/12/24 13:58:36;;;;;;;15.27;4.53;;;11.70;99.90;;;;;;4922464;23;20036;-87
2023/12/24 14:01:02;;;;;;;13.70;3.60;;;11.50;99.90;;;;;;4982144;23;20041;-88
2023/12/24 14:04:05;;;;;;;11.90;4.07;;;11.60;99.90;;;;;;5042808;23;20041;-91
2023/12/24 14:07:18;;;;;;;;;;;;;;;;;;;;;
2023/12/24 14:10:05;;;;;;;12.55;4.45;;;11.60;99.90;;;;;;4884601;29;20053;-89
2023/12/24 14:13:08;;;;;;;9.40;2.70;;;11.50;99.90;;;;;;4882238;29;20110;-90
2023/12/24 14:16:08;;;;;;;10.88;3.47;;;11.60;99.90;;;;;;4795605;29;20079;-88
2023/12/24 14:22:05;;;;;;;11.35;2.97;;;10.80;99.90;;;;;;4882524;23;20051;-88
2023/12/24 14:28:05;;;;;;;9.20;2.60;;;11.60;99.90;;;;;;4897833;29;20529;-90
2023/12/24 14:31:40;;;;;;;8.55;2.75;;;11.70;99.90;;;;;;4870494;29;20514;-90
2023/12/24 14:34:10;;;;;;;7.93;2.33;;;11.80;99.90;;;;;;4881904;29;20088;-88
2023/12/24 14:36:42;;;;;;;10.82;2.90;;;13.00;99.90;;;;;;4931507;23;20064;-89
2023/12/24 14:39:41;;;;;;;9.50;3.00;;;12.80;99.90;;;;;;4845272;29;20053;-90
2023/12/24 14:42:12;;;;;;;10.23;2.60;;;11.70;99.90;;;;;;4845572;29;20041;-90
2023/12/24 14:44:40;;;;;;;12.70;2.55;;;12.80;99.90;;;;;;4896018;23;20619;-90
2023/12/24 14:47:18;;;;;;;;;;;;;;;;;;;;;
2023/12/24 14:50:14;;;;;;;7.70;2.35;;;11.80;99.90;;;;;;4924629;23;20100;-90
2023/12/24 14:52:40;;;;;;;7.38;2.40;;;11.50;99.90;;;;;;4889006;23;20061;-90
2023/12/24 14:58:32;;;;;;;9.23;2.10;;;11.60;99.90;;;;;;4825103;29;20141;-89
2023/12/24 15:01:25;;;;;;;6.88;1.92;;;13.20;99.90;;;;;;4826383;29;20062;-92
2023/12/24 15:06:56;;;;;;;8.88;2.25;;;11.80;99.90;;;;;;5139378;23;20061;-90
2023/12/24 15:09:34;;;;;;;6.13;2.03;;;11.50;99.90;;;;;;4882877;29;20052;-90
2023/12/24 15:12:12;;;;;;;8.73;2.40;;;13.20;99.90;;;;;;4882657;29;20044;-90
2023/12/24 15:14:54;;;;;;;7.10;2.10;;;11.70;99.90;;;;;;4882053;29;20049;-90
2023/12/24 15:25:38;;;;;;;6.18;1.80;;;11.70;99.90;;;;;;5010135;23;20056;-89
2023/12/24 15:28:20;;;;;;;7.30;1.95;;;11.60;99.90;;;;;;4899857;29;20108;-89
2023/12/24 15:31:07;;;;;;;5.28;1.55;;;11.00;99.90;;;;;;4900957;29;20048;-90
2023/12/24 15:33:38;;;;;;;4.85;1.25;;;12.50;99.90;;;;;;4900075;29;20052;-89
2023/12/24 15:36:20;;;;;;;5.38;1.63;;;12.90;99.90;;;;;;4900518;29;20481;-89
2023/12/24 15:39:06;;;;;;;5.47;1.42;;;12.80;99.90;;;;;;4896861;29;20056;-89
2023/12/24 15:41:43;;;;;;;5.90;1.58;;;11.70;99.90;;;;;;4915841;29;20488;-87
2023/12/24 15:44:22;;;;;;;5.40;1.30;;;11.80;99.90;;;;;;4899722;29;20091;-88
2023/12/24 15:47:08;;;;;;;6.38;1.60;;;11.70;99.90;;;;;;4900288;29;20084;-90
2023/12/24 15:49:54;;;;;;;;;;;;;;;;;;;;;
2023/12/24 15:56:39;;;;;;;4.03;1.38;;;11.80;99.90;;;;;;4793718;23;20413;-90
2023/12/24 15:59:07;;;;;;;6.03;1.90;;;11.80;99.90;;;;;;4881668;29;20060;-89
2023/12/24 16:01:43;;;;;;;5.03;1.52;;;11.90;99.90;;;;;;4882598;29;20044;-88
2023/12/24 16:04:19;;;;;;;6.22;2.05;;;11.70;99.90;;;;;;4883475;29;20056;-91
2023/12/24 16:07:08;;;;;;;10.30;3.15;;;13.30;99.90;;;;;;4882604;29;20048;-91
2023/12/24 16:09:42;;;;;;;11.10;2.60;;;12.00;99.90;;;;;;4806020;29;20054;-93
2023/12/24 16:12:35;;;;;;;11.93;3.03;;;13.20;99.90;;;;;;4804983;29;20050;-90
2023/12/24 16:15:52;;;;;;;8.18;2.67;;;11.80;99.90;;;;;;4876177;23;20048;-92
2023/12/24 16:18:19;;;;;;;10.55;2.90;;;12.60;99.90;;;;;;4869550;29;20191;-92
2023/12/24 16:20:54;;;;;;;9.48;3.10;;;13.30;99.90;;;;;;4853549;29;20049;-92
2023/12/24 16:26:20;;;;;;;10.02;3.60;;;12.00;99.90;;;;;;4999191;23;20056;-90
2023/12/24 16:29:00;;;;;;;12.32;3.13;;;12.20;99.90;;;;;;4906782;29;20104;-91
2023/12/24 16:31:40;;;;;;;11.23;3.00;;;13.50;99.90;;;;;;4869831;29;20056;-91
2023/12/24 16:44:28;;;;;;;12.20;2.92;;;12.10;99.90;;;;;;4919098;29;20473;-92
2023/12/24 16:47:09;;;;;;;15.40;4.15;;;12.00;99.90;;;;;;4900931;29;20040;-91
2023/12/24 16:50:08;;;;;;;;;;;;;;;;;;;;;
2023/12/24 16:53:03;;;;;;;13.52;3.45;;;13.40;99.90;;;;;;4856104;29;20064;-92
2023/12/24 16:55:44;;;;;;;13.75;3.58;;;13.30;99.90;;;;;;5081214;23;20031;-95
2023/12/24 17:14:16;;;;;;;19.10;4.25;;;11.90;99.90;;;;;;4943638;23;20631;-94
2023/12/24 17:16:42;;;;;;;17.50;3.65;;;12.10;99.90;;;;;;4901720;29;20056;-94
2023/12/24 17:19:10;;;;;;;16.38;4.32;;;12.80;99.90;;;;;;4901798;29;20051;-94
2023/12/24 17:21:39;;;;;;;17.90;4.13;;;11.90;99.90;;;;;;4958787;23;20053;-95
2023/12/24 17:24:05;;;;;;;16.38;3.90;;;13.20;99.90;;;;;;4859244;29;20042;-96
2023/12/24 17:32:50;;;;;;;15.52;4.38;;;11.80;99.90;;;;;;4941534;23;20063;-96
2023/12/24 17:38:15;;;;;;;17.02;3.88;;;12.70;99.90;;;;;;4907935;29;20060;-91
2023/12/24 17:40:48;;;;;;;18.10;5.38;;;13.00;99.90;;;;;;4908407;29;20135;-95
2023/12/24 17:43:16;;;;;;;11.02;3.50;;;13.20;99.90;;;;;;4905414;29;20084;-93
2023/12/24 17:45:47;;;;;;;16.95;4.22;;;11.90;99.90;;;;;;4908249;29;20090;-96
2023/12/24 17:48:38;;;;;;;24.92;7.78;;;11.80;99.90;;;;;;4911094;29;20063;-94
2023/12/24 17:51:07;;;;;;;19.27;4.05;;;11.00;99.90;;;;;;4898283;29;20040;-96
2023/12/24 17:53:39;;;;;;;17.17;6.88;;;12.90;99.90;;;;;;4902687;29;20044;-95
2023/12/24 17:56:07;;;;;;;19.10;5.50;;;12.80;99.90;;;;;;4901633;29;20042;-95
2023/12/24 17:58:46;;;;;;;14.32;4.18;;;13.30;99.90;;;;;;4907636;29;20036;-96
2023/12/24 18:01:17;;;;;;;17.33;4.72;;;13.10;99.90;;;;;;4901234;29;20083;-95
2023/12/24 18:03:49;;;;;;;11.77;3.10;;;12.80;99.90;;;;;;4904896;29;20043;-95
2023/12/24 18:09:22;;;;;;;14.65;3.45;;;12.40;99.90;;;;;;4902341;23;20513;-95
2023/12/24 18:14:25;;;;;;;16.38;7.03;;;12.40;99.90;;;;;;4932408;23;20040;-96
2023/12/24 18:16:58;;;;;;;13.70;3.05;;;12.40;99.90;;;;;;4909615;29;20489;-96
2023/12/24 18:22:18;;;;;;;14.30;2.97;;;12.40;99.90;;;;;;4895253;29;20049;-94
2023/12/24 18:24:44;;;;;;;17.60;3.72;;;13.10;99.90;;;;;;4908656;29;20092;-96
2023/12/24 18:27:12;;;;;;;16.58;3.50;;;13.70;99.90;;;;;;4905314;29;20040;-94
2023/12/24 18:29:38;;;;;;;14.68;4.13;;;13.40;99.90;;;;;;4922437;23;20055;-95
2023/12/24 18:32:08;;;;;;;15.23;3.20;;;13.80;99.90;;;;;;4930600;23;20043;-93
2023/12/24 18:34:59;;;;;;;14.45;4.22;;;12.00;99.90;;;;;;4933066;29;20040;-96
2023/12/24 18:38:27;;;;;;;15.57;3.15;;;12.50;99.90;;;;;;4939103;28;20052;-96
2023/12/24 19:03:27;;;;;;;14.20;2.83;;;12.50;99.90;;;;;;5678900;23;20059;-94
2023/12/24 19:07:05;;;;;;;14.02;2.80;;;12.50;99.90;;;;;;4898329;29;20131;-96
2023/12/24 19:09:32;;;;;;;11.90;2.63;;;11.90;99.90;;;;;;4879953;29;20201;-95
2023/12/24 19:12:08;;;;;;;13.43;3.40;;;13.90;99.90;;;;;;4884249;29;20047;-93
2023/12/24 19:14:49;;;;;;;13.93;3.00;;;12.50;99.90;;;;;;4881268;29;20048;-94
2023/12/24 19:23:06;;;;;;;13.07;2.70;;;12.50;99.90;;;;;;4982881;23;20052;-96
2023/12/24 19:28:21;;;;;;;15.05;3.20;;;12.50;99.90;;;;;;4904377;23;20055;-94
2023/12/24 19:30:50;;;;;;;13.18;2.85;;;12.30;99.90;;;;;;4916050;23;20112;-95
2023/12/24 19:33:22;;;;;;;13.60;2.97;;;13.90;99.90;;;;;;4907935;29;20028;-96
2023/12/24 19:35:48;;;;;;;18.02;3.20;;;13.10;99.90;;;;;;4919731;23;20049;-95
2023/12/24 19:38:21;;;;;;;14.98;3.28;;;12.50;99.90;;;;;;4904378;29;20054;-95
2023/12/24 19:40:48;;;;;;;16.00;3.95;;;12.50;99.90;;;;;;5138632;23;20164;-96
2023/12/24 19:43:26;;;;;;;16.30;3.30;;;12.50;99.90;;;;;;4906549;29;20040;-95
2023/12/24 19:45:53;;;;;;;16.13;3.67;;;12.40;99.90;;;;;;4910296;29;20020;-95
2023/12/24 19:48:22;;;;;;;13.98;3.33;;;12.70;99.90;;;;;;4915281;29;20044;-94
2023/12/24 19:50:47;;;;;;;16.60;2.78;;;13.70;99.90;;;;;;4919208;29;20037;-96
2023/12/24 19:53:20;;;;;;;16.30;3.60;;;13.50;99.90;;;;;;4909250;29;20048;-93
2023/12/24 19:56:05;;;;;;;12.77;2.40;;;12.60;99.90;;;;;;4917917;29;20096;-96
2023/12/24 19:58:31;;;;;;;11.77;3.08;;;12.30;99.90;;;;;;4928405;29;20053;-95
2023/12/24 20:01:03;;;;;;;13.35;3.22;;;13.00;99.90;;;;;;4916208;29;20029;-93
2023/12/24 20:03:41;;;;;;;16.42;3.53;;;12.90;99.90;;;;;;4911152;29;20062;-93
2023/12/24 20:06:06;;;;;;;12.52;2.55;;;13.80;99.90;;;;;;4901219;29;20036;-95
2023/12/24 20:08:32;;;;;;;14.90;2.75;;;13.70;99.90;;;;;;4899896;29;20127;-93